createdAt,value
2017-04-15T00:00:02.451Z,14.25
2017-04-15T00:01:03.506Z,14.50
2017-04-15T00:02:04.521Z,13.53
2017-04-15T00:03:05.949Z,13.40
2017-04-15T00:04:07.061Z,13.53
2017-04-15T00:05:08.245Z,12.62
2017-04-15T00:06:09.658Z,14.02
2017-04-15T00:07:10.652Z,13.60
2017-04-15T00:08:11.707Z,13.42
2017-04-15T00:09:13.404Z,14.90
2017-04-15T00:10:14.643Z,13.98
2017-04-15T00:11:16.175Z,13.05
2017-04-15T00:12:17.697Z,14.48
2017-04-15T00:13:20.028Z,14.63
2017-04-15T00:14:21.334Z,15.13
2017-04-15T00:15:22.502Z,14.00
2017-04-15T00:16:24.144Z,13.52
2017-04-15T00:17:25.456Z,13.97
2017-04-15T00:18:26.455Z,15.25
2017-04-15T00:19:27.491Z,14.60
2017-04-15T00:20:29.474Z,14.15
2017-04-15T00:21:30.753Z,14.15
2017-04-15T00:22:32.272Z,14.00
2017-04-15T00:23:34.162Z,13.42
2017-04-15T00:24:35.645Z,14.57
2017-04-15T00:25:36.982Z,14.98
2017-04-15T00:26:38.275Z,13.08
2017-04-15T00:27:39.794Z,14.07
2017-04-15T00:28:41.046Z,14.07
2017-04-15T00:29:42.130Z,13.17
2017-04-15T00:30:43.236Z,14.00
2017-04-15T00:31:44.909Z,14.15
2017-04-15T00:32:46.158Z,13.10
2017-04-15T00:33:47.631Z,13.33
2017-04-15T00:34:49.026Z,14.77
2017-04-15T00:35:50.379Z,14.75
2017-04-15T00:36:51.769Z,14.25
2017-04-15T00:37:53.644Z,14.68
2017-04-15T00:38:54.993Z,13.83
2017-04-15T00:39:56.119Z,14.82
2017-04-15T00:40:57.144Z,14.15
2017-04-15T00:41:58.773Z,15.30
2017-04-15T00:43:00.014Z,14.37
2017-04-15T00:44:01.304Z,14.97
2017-04-15T00:45:02.624Z,14.30
2017-04-15T00:46:04.240Z,13.77
2017-04-15T00:47:05.732Z,14.12
2017-04-15T00:48:06.860Z,15.02
2017-04-15T00:49:08.124Z,15.30
2017-04-15T00:50:09.233Z,15.42
2017-04-15T00:51:10.484Z,15.35
2017-04-15T00:52:11.692Z,17.70
2017-04-15T00:53:12.837Z,16.93
2017-04-15T00:54:13.969Z,17.53
2017-04-15T00:55:15.106Z,17.57
2017-04-15T00:56:16.231Z,17.62
2017-04-15T00:57:17.530Z,18.78
2017-04-15T00:58:19.542Z,17.32
2017-04-15T00:59:21.121Z,18.08
2017-04-15T01:00:22.088Z,18.20
2017-04-15T01:01:23.308Z,19.27
2017-04-15T01:02:24.948Z,18.55
2017-04-15T01:03:26.069Z,19.12
2017-04-15T01:04:27.709Z,19.37
2017-04-15T01:05:29.141Z,18.57
2017-04-15T01:06:30.136Z,19.50
2017-04-15T01:07:31.121Z,19.97
2017-04-15T01:08:32.468Z,18.88
2017-04-15T01:09:33.588Z,19.28
2017-04-15T01:10:34.522Z,20.73
2017-04-15T01:11:35.701Z,20.33
2017-04-15T01:12:37.182Z,18.87
2017-04-15T01:13:38.214Z,19.87
2017-04-15T01:14:39.968Z,18.02
2017-04-15T01:15:41.170Z,20.63
2017-04-15T01:16:42.541Z,18.70
2017-04-15T01:17:43.460Z,19.25
2017-04-15T01:18:44.425Z,21.68
2017-04-15T01:19:45.635Z,21.17
2017-04-15T01:20:46.876Z,19.25
2017-04-15T01:21:48.312Z,19.68
2017-04-15T01:22:49.835Z,19.77
2017-04-15T01:23:51.015Z,20.47
2017-04-15T01:24:52.270Z,23.43
2017-04-15T01:25:53.331Z,22.13
2017-04-15T01:26:54.389Z,21.67
2017-04-15T01:27:55.527Z,21.32
2017-04-15T01:28:56.844Z,23.07
2017-04-15T01:29:58.120Z,22.77
2017-04-15T01:30:59.283Z,22.43
2017-04-15T01:32:00.287Z,21.20
2017-04-15T01:33:01.211Z,22.58
2017-04-15T01:34:07.553Z,21.58
2017-04-15T01:35:10.015Z,21.35
2017-04-15T01:36:10.995Z,22.63
2017-04-15T01:37:11.975Z,21.80
2017-04-15T01:38:13.108Z,23.93
2017-04-15T01:39:14.426Z,23.12
2017-04-15T01:40:15.568Z,22.65
2017-04-15T01:41:16.564Z,22.05
2017-04-15T01:42:17.619Z,21.90
2017-04-15T01:43:18.796Z,22.70
2017-04-15T01:44:19.793Z,22.00
2017-04-15T01:45:21.998Z,20.82
2017-04-15T01:46:23.419Z,21.70
2017-04-15T01:47:24.517Z,23.22
2017-04-15T01:48:25.627Z,22.38
2017-04-15T01:49:26.937Z,23.17
2017-04-15T01:50:28.142Z,22.88
2017-04-15T01:51:29.302Z,24.15
2017-04-15T01:52:30.619Z,22.65
2017-04-15T01:53:31.754Z,23.67
2017-04-15T01:54:32.731Z,22.47
2017-04-15T01:55:33.905Z,21.75
2017-04-15T01:56:35.071Z,23.95
2017-04-15T01:57:36.577Z,23.80
2017-04-15T01:58:37.725Z,23.97
2017-04-15T01:59:39.039Z,22.43
2017-04-15T02:00:40.650Z,22.72
2017-04-15T02:01:41.940Z,23.08
2017-04-15T02:02:42.936Z,23.27
2017-04-15T02:03:43.918Z,23.93
2017-04-15T02:04:45.187Z,23.67
2017-04-15T02:05:46.417Z,24.15
2017-04-15T02:06:47.668Z,24.57
2017-04-15T02:07:49.224Z,23.95
2017-04-15T02:08:50.742Z,23.83
2017-04-15T02:09:52.358Z,23.95
2017-04-15T02:10:53.506Z,24.30
2017-04-15T02:11:54.855Z,24.92
2017-04-15T02:12:56.056Z,24.80
2017-04-15T02:13:57.105Z,25.07
2017-04-15T02:14:58.790Z,25.77
2017-04-15T02:16:00.487Z,25.18
2017-04-15T02:17:01.609Z,24.57
2017-04-15T02:18:02.717Z,24.17
2017-04-15T02:19:04.911Z,24.67
2017-04-15T02:20:06.468Z,22.70
2017-04-15T02:21:07.437Z,24.70
2017-04-15T02:22:08.488Z,25.33
2017-04-15T02:23:10.027Z,24.88
2017-04-15T02:24:11.070Z,24.67
2017-04-15T02:25:12.387Z,23.25
2017-04-15T02:26:13.957Z,25.67
2017-04-15T02:27:15.133Z,24.98
2017-04-15T02:28:16.289Z,24.02
2017-04-15T02:29:17.363Z,24.23
2017-04-15T02:30:18.864Z,25.00
2017-04-15T02:31:20.275Z,23.18
2017-04-15T02:32:21.783Z,24.22
2017-04-15T02:33:23.419Z,23.23
2017-04-15T02:34:24.383Z,25.20
2017-04-15T02:35:25.554Z,24.90
2017-04-15T02:36:26.631Z,24.95
2017-04-15T02:37:28.267Z,24.15
2017-04-15T02:38:29.365Z,23.80
2017-04-15T02:39:30.603Z,23.57
2017-04-15T02:40:31.743Z,24.95
2017-04-15T02:41:33.053Z,23.85
2017-04-15T02:42:34.283Z,25.05
2017-04-15T02:43:35.286Z,25.87
2017-04-15T02:44:36.266Z,24.37
2017-04-15T02:45:37.739Z,26.63
2017-04-15T02:46:39.060Z,25.43
2017-04-15T02:47:40.479Z,24.83
2017-04-15T02:48:41.996Z,26.97
2017-04-15T02:49:43.134Z,26.77
2017-04-15T02:50:44.541Z,24.17
2017-04-15T02:51:45.978Z,23.77
2017-04-15T02:52:47.484Z,25.12
2017-04-15T02:53:49.167Z,25.63
2017-04-15T02:54:50.238Z,26.40
2017-04-15T02:55:51.533Z,24.43
2017-04-15T02:56:52.635Z,24.90
2017-04-15T02:57:54.108Z,23.77
2017-04-15T02:58:55.682Z,25.27
2017-04-15T02:59:57.135Z,25.30
2017-04-15T03:00:58.260Z,26.08
2017-04-15T03:01:59.509Z,26.03
2017-04-15T03:03:01.355Z,23.88
2017-04-15T03:04:02.734Z,24.80
2017-04-15T03:05:03.767Z,26.45
2017-04-15T03:06:05.298Z,25.60
2017-04-15T03:07:06.260Z,26.78
2017-04-15T03:08:07.671Z,25.93
2017-04-15T03:09:09.222Z,28.05
2017-04-15T03:10:10.747Z,26.78
2017-04-15T03:11:12.205Z,25.78
2017-04-15T03:12:13.358Z,26.67
2017-04-15T03:13:15.832Z,26.30
2017-04-15T03:14:17.182Z,25.95
2017-04-15T03:15:18.655Z,27.10
2017-04-15T03:16:19.680Z,27.22
2017-04-15T03:17:21.300Z,26.92
2017-04-15T03:18:22.913Z,24.98
2017-04-15T03:19:24.092Z,24.95
2017-04-15T03:20:25.239Z,27.75
2017-04-15T03:21:26.754Z,26.35
2017-04-15T03:22:27.856Z,27.32
2017-04-15T03:23:29.165Z,27.05
2017-04-15T03:24:30.117Z,26.55
2017-04-15T03:25:32.370Z,26.25
2017-04-15T03:26:33.667Z,26.97
2017-04-15T03:27:34.755Z,27.30
2017-04-15T03:28:36.193Z,28.10
2017-04-15T03:29:37.987Z,26.37
2017-04-15T03:30:40.417Z,28.38
2017-04-15T03:31:42.054Z,26.85
2017-04-15T03:32:43.539Z,26.57
2017-04-15T03:33:44.819Z,27.13
2017-04-15T03:34:46.088Z,26.98
2017-04-15T03:35:47.599Z,26.13
2017-04-15T03:36:50.115Z,27.22
2017-04-15T03:37:51.587Z,26.55
2017-04-15T03:38:52.815Z,26.10
2017-04-15T03:39:53.959Z,27.93
2017-04-15T03:40:55.399Z,26.30
2017-04-15T03:41:56.596Z,26.98
2017-04-15T03:42:57.977Z,26.70
2017-04-15T03:43:59.400Z,28.20
2017-04-15T03:45:00.643Z,26.30
2017-04-15T03:46:02.060Z,27.18
2017-04-15T03:47:03.476Z,27.72
2017-04-15T03:48:05.066Z,26.03
2017-04-15T03:49:06.271Z,27.72
2017-04-15T03:50:07.478Z,27.20
2017-04-15T03:51:09.054Z,26.20
2017-04-15T03:52:10.247Z,25.07
2017-04-15T03:53:11.969Z,27.57
2017-04-15T03:54:13.176Z,26.80
2017-04-15T03:55:14.375Z,28.35
2017-04-15T03:56:15.528Z,27.12
2017-04-15T03:57:16.965Z,27.18
2017-04-15T03:58:18.319Z,28.20
2017-04-15T03:59:19.558Z,28.05
2017-04-15T04:00:21.273Z,25.85
2017-04-15T04:01:22.308Z,27.80
2017-04-15T04:02:24.060Z,29.22
2017-04-15T04:03:25.466Z,27.53
2017-04-15T04:04:26.604Z,26.00
2017-04-15T04:05:27.802Z,24.95
2017-04-15T04:06:29.109Z,28.38
2017-04-15T04:07:30.321Z,28.35
2017-04-15T04:08:31.564Z,27.27
2017-04-15T04:09:32.726Z,28.58
2017-04-15T04:10:33.948Z,28.13
2017-04-15T04:11:35.059Z,26.93
2017-04-15T04:12:36.368Z,25.88
2017-04-15T04:13:38.071Z,25.43
2017-04-15T04:14:39.360Z,27.52
2017-04-15T04:15:40.703Z,28.27
2017-04-15T04:16:46.475Z,27.28
2017-04-15T04:17:48.009Z,26.22
2017-04-15T04:18:50.707Z,25.40
2017-04-15T04:19:52.293Z,26.17
2017-04-15T04:20:53.460Z,28.78
2017-04-15T04:21:54.747Z,25.88
2017-04-15T04:22:56.085Z,26.50
2017-04-15T04:23:57.384Z,27.98
2017-04-15T04:24:59.324Z,27.93
2017-04-15T04:26:00.538Z,27.48
2017-04-15T04:27:01.807Z,26.65
2017-04-15T04:28:02.958Z,26.08
2017-04-15T04:29:04.218Z,28.65
2017-04-15T04:30:06.166Z,26.00
2017-04-15T04:31:07.401Z,26.82
2017-04-15T04:32:08.744Z,26.00
2017-04-15T04:33:09.911Z,27.15
2017-04-15T04:34:11.071Z,26.63
2017-04-15T04:35:12.591Z,27.72
2017-04-15T04:36:13.983Z,29.83
2017-04-15T04:37:18.519Z,27.37
2017-04-15T04:38:20.878Z,25.58
2017-04-15T04:39:22.172Z,26.70
2017-04-15T04:40:23.676Z,27.07
2017-04-15T04:41:24.858Z,26.75
2017-04-15T04:42:26.056Z,26.17
2017-04-15T04:43:27.280Z,25.38
2017-04-15T04:44:28.425Z,27.90
2017-04-15T04:45:30.016Z,26.60
2017-04-15T04:46:31.631Z,25.10
2017-04-15T04:47:32.994Z,26.58
2017-04-15T04:48:34.096Z,25.75
2017-04-15T04:49:35.376Z,26.45
2017-04-15T04:50:36.675Z,27.77
2017-04-15T04:51:39.101Z,26.28
2017-04-15T04:52:41.349Z,25.88
2017-04-15T04:53:42.577Z,26.93
2017-04-15T04:54:43.956Z,27.37
2017-04-15T04:55:45.431Z,24.35
2017-04-15T04:56:58.530Z,26.58
2017-04-15T04:58:00.877Z,26.98
2017-04-15T04:59:02.386Z,24.72
2017-04-15T05:00:03.967Z,26.80
2017-04-15T05:01:05.403Z,25.73
2017-04-15T05:02:07.171Z,27.18
2017-04-15T05:03:09.110Z,26.97
2017-04-15T05:04:10.585Z,25.07
2017-04-15T05:05:11.940Z,26.98
2017-04-15T05:06:13.076Z,25.82
2017-04-15T05:07:15.126Z,27.30
2017-04-15T05:08:20.543Z,25.22
2017-04-15T05:09:23.507Z,27.85
2017-04-15T05:10:25.115Z,26.65
2017-04-15T05:11:26.715Z,26.68
2017-04-15T05:12:28.787Z,26.78
2017-04-15T05:13:30.432Z,25.22
2017-04-15T05:14:31.764Z,25.02
2017-04-15T05:15:32.879Z,27.05
2017-04-15T05:16:34.036Z,26.75
2017-04-15T05:17:35.506Z,26.12
2017-04-15T05:18:37.076Z,25.55
2017-04-15T05:19:38.977Z,28.02
2017-04-15T05:20:41.020Z,25.45
2017-04-15T05:21:42.976Z,27.33
2017-04-15T05:22:44.846Z,26.52
2017-04-15T05:23:46.584Z,24.25
2017-04-15T05:24:47.911Z,26.88
2017-04-15T05:25:49.148Z,25.37
2017-04-15T05:26:50.500Z,24.95
2017-04-15T05:27:51.975Z,24.95
2017-04-15T05:28:53.936Z,26.50
2017-04-15T05:29:55.521Z,25.43
2017-04-15T05:30:57.127Z,25.13
2017-04-15T05:31:58.979Z,24.87
2017-04-15T05:33:01.129Z,25.48
2017-04-15T05:34:03.158Z,25.58
2017-04-15T05:35:06.260Z,22.83
2017-04-15T05:36:07.759Z,23.48
2017-04-15T05:37:12.587Z,23.53
2017-04-15T05:38:20.905Z,22.43
2017-04-15T05:39:24.039Z,23.05
2017-04-15T05:40:26.105Z,22.40
2017-04-15T05:41:27.801Z,23.22
2017-04-15T05:42:29.853Z,22.68
2017-04-15T05:43:31.388Z,22.87
2017-04-15T05:44:33.032Z,21.32
2017-04-15T05:45:35.504Z,22.23
2017-04-15T05:46:43.296Z,22.67
2017-04-15T05:47:47.832Z,21.95
2017-04-15T05:48:51.226Z,21.60
2017-04-15T05:50:02.258Z,21.72
2017-04-15T05:51:07.898Z,20.60
2017-04-15T05:52:16.280Z,21.10
2017-04-15T05:53:23.741Z,19.23
2017-04-15T05:54:27.925Z,20.82
2017-04-15T05:55:31.260Z,19.63
2017-04-15T05:56:34.777Z,20.85
2017-04-15T05:57:42.326Z,19.85
2017-04-15T05:58:48.612Z,20.75
2017-04-15T05:59:54.697Z,19.37
2017-04-15T06:01:03.936Z,20.75
2017-04-15T06:02:09.407Z,19.70
2017-04-15T06:03:12.795Z,20.85
2017-04-15T06:04:24.608Z,21.40
2017-04-15T06:05:30.393Z,20.43
2017-04-15T06:06:35.052Z,19.70
2017-04-15T06:07:38.514Z,20.18
2017-04-15T06:08:41.516Z,19.07
2017-04-15T06:09:45.007Z,19.50
2017-04-15T06:10:48.042Z,20.52
2017-04-15T06:11:51.760Z,18.73
2017-04-15T06:12:55.016Z,19.67
2017-04-15T06:13:57.387Z,18.00
2017-04-15T06:14:59.957Z,18.88
2017-04-15T06:16:01.460Z,19.58
2017-04-15T06:17:02.415Z,20.55
2017-04-15T06:18:03.529Z,19.37
2017-04-15T06:19:05.723Z,19.65
2017-04-15T06:20:06.926Z,20.03
2017-04-15T06:21:08.084Z,18.63
2017-04-15T06:22:09.315Z,19.53
2017-04-15T06:23:10.419Z,20.62
2017-04-15T06:24:11.577Z,19.98
2017-04-15T06:25:12.712Z,20.07
2017-04-15T06:26:14.249Z,19.45
2017-04-15T06:27:15.424Z,19.88
2017-04-15T06:28:16.567Z,19.48
2017-04-15T06:29:18.156Z,20.17
2017-04-15T06:30:19.279Z,19.58
2017-04-15T06:31:20.404Z,19.60
2017-04-15T06:32:21.571Z,19.48
2017-04-15T06:33:22.744Z,20.02
2017-04-15T06:34:23.923Z,21.12
2017-04-15T06:35:25.056Z,22.62
2017-04-15T06:36:26.170Z,19.52
2017-04-15T06:37:27.341Z,21.48
2017-04-15T06:38:28.481Z,21.33
2017-04-15T06:39:29.694Z,21.25
2017-04-15T06:40:30.850Z,21.40
2017-04-15T06:41:31.964Z,21.05
2017-04-15T06:42:32.947Z,23.02
2017-04-15T06:43:34.082Z,22.30
2017-04-15T06:44:36.276Z,23.92
2017-04-15T06:45:37.720Z,23.02
2017-04-15T06:46:39.015Z,22.02
2017-04-15T06:47:40.122Z,22.32
2017-04-15T06:48:41.268Z,23.67
2017-04-15T06:49:42.715Z,24.20
2017-04-15T06:50:44.173Z,25.33
2017-04-15T06:51:45.851Z,25.13
2017-04-15T06:52:47.088Z,25.83
2017-04-15T06:53:48.088Z,25.75
2017-04-15T06:54:49.369Z,27.13
2017-04-15T06:55:50.609Z,26.15
2017-04-15T06:56:51.960Z,28.02
2017-04-15T06:57:53.505Z,27.83
2017-04-15T06:58:54.787Z,27.35
2017-04-15T06:59:55.928Z,27.33
2017-04-15T07:00:57.068Z,27.68
2017-04-15T07:01:58.257Z,29.37
2017-04-15T07:02:59.523Z,28.20
2017-04-15T07:04:00.935Z,29.43
2017-04-15T07:05:02.083Z,28.90
2017-04-15T07:06:03.389Z,29.53
2017-04-15T07:07:04.778Z,29.92
2017-04-15T07:08:06.052Z,28.98
2017-04-15T07:09:06.387Z,29.05
2017-04-15T07:10:07.140Z,29.20
2017-04-15T07:11:08.251Z,28.58
2017-04-15T07:12:09.812Z,29.97
2017-04-15T07:13:10.958Z,29.15
2017-04-15T07:14:12.136Z,28.88
2017-04-15T07:15:13.627Z,28.60
2017-04-15T07:16:14.824Z,30.97
2017-04-15T07:17:16.075Z,31.47
2017-04-15T07:18:17.323Z,28.70
2017-04-15T07:19:18.453Z,31.17
2017-04-15T07:20:20.165Z,30.18
2017-04-15T07:21:21.550Z,30.48
2017-04-15T07:22:22.718Z,29.15
2017-04-15T07:23:23.959Z,30.37
2017-04-15T07:24:25.472Z,30.32
2017-04-15T07:25:26.896Z,31.78
2017-04-15T07:26:31.249Z,30.52
2017-04-15T07:27:33.388Z,31.00
2017-04-15T07:28:34.567Z,30.43
2017-04-15T07:29:35.811Z,30.15
2017-04-15T07:30:37.024Z,31.10
2017-04-15T07:31:39.297Z,31.33
2017-04-15T07:32:40.761Z,31.55
2017-04-15T07:33:43.115Z,31.20
2017-04-15T07:34:44.378Z,31.12
2017-04-15T07:35:45.339Z,32.77
2017-04-15T07:36:46.457Z,32.77
2017-04-15T07:37:47.621Z,31.88
2017-04-15T07:38:49.008Z,31.88
2017-04-15T07:39:50.448Z,32.45
2017-04-15T07:40:52.044Z,33.03
2017-04-15T07:41:53.621Z,32.85
2017-04-15T07:42:54.776Z,32.65
2017-04-15T07:43:55.963Z,32.87
2017-04-15T07:44:57.467Z,34.03
2017-04-15T07:45:58.948Z,34.53
2017-04-15T07:47:00.174Z,34.23
2017-04-15T07:48:01.800Z,36.05
2017-04-15T07:49:03.592Z,33.42
2017-04-15T07:50:05.143Z,35.58
2017-04-15T07:51:07.065Z,33.58
2017-04-15T07:52:08.435Z,34.55
2017-04-15T07:53:09.658Z,35.17
2017-04-15T07:54:11.226Z,35.60
2017-04-15T07:55:12.413Z,36.18
2017-04-15T07:56:13.586Z,35.80
2017-04-15T07:57:14.731Z,36.87
2017-04-15T07:58:15.912Z,35.00
2017-04-15T07:59:17.174Z,35.25
2017-04-15T08:00:18.472Z,35.57
2017-04-15T08:01:19.792Z,36.65
2017-04-15T08:02:20.944Z,35.18
2017-04-15T08:03:22.396Z,34.63
2017-04-15T08:04:23.528Z,36.23
2017-04-15T08:05:24.893Z,36.88
2017-04-15T08:06:26.521Z,35.17
2017-04-15T08:07:27.915Z,35.82
2017-04-15T08:08:29.405Z,36.97
2017-04-15T08:09:30.932Z,36.28
2017-04-15T08:10:35.315Z,35.23
2017-04-15T08:11:37.252Z,35.30
2017-04-15T08:12:38.375Z,36.00
2017-04-15T08:13:40.136Z,35.72
2017-04-15T08:14:41.334Z,34.83
2017-04-15T08:15:42.782Z,35.35
2017-04-15T08:16:44.138Z,33.78
2017-04-15T08:17:45.265Z,34.60
2017-04-15T08:18:46.472Z,34.28
2017-04-15T08:19:47.633Z,35.77
2017-04-15T08:20:49.052Z,35.85
2017-04-15T08:21:50.376Z,35.58
2017-04-15T08:22:51.784Z,35.98
2017-04-15T08:23:53.356Z,36.48
2017-04-15T08:24:54.497Z,34.60
2017-04-15T08:25:56.227Z,34.47
2017-04-15T08:26:57.407Z,34.43
2017-04-15T08:27:58.539Z,34.02
2017-04-15T08:28:59.943Z,34.15
2017-04-15T08:30:01.095Z,32.88
2017-04-15T08:31:02.421Z,34.20
2017-04-15T08:32:03.740Z,33.82
2017-04-15T08:33:05.005Z,33.47
2017-04-15T08:34:06.169Z,33.77
2017-04-15T08:35:07.712Z,33.42
2017-04-15T08:36:08.842Z,33.12
2017-04-15T08:37:09.826Z,34.10
2017-04-15T08:38:11.284Z,34.25
2017-04-15T08:39:12.786Z,33.32
2017-04-15T08:40:14.090Z,33.45
2017-04-15T08:41:15.260Z,32.88
2017-04-15T08:42:16.561Z,33.40
2017-04-15T08:43:17.574Z,33.50
2017-04-15T08:44:19.234Z,32.75
2017-04-15T08:45:20.444Z,32.95
2017-04-15T08:46:21.832Z,32.50
2017-04-15T08:47:23.223Z,33.00
2017-04-15T08:48:24.413Z,32.30
2017-04-15T08:49:26.043Z,33.40
2017-04-15T08:50:27.233Z,32.45
2017-04-15T08:51:28.386Z,31.60
2017-04-15T08:52:29.543Z,33.30
2017-04-15T08:53:30.710Z,32.53
2017-04-15T08:54:31.943Z,31.73
2017-04-15T08:55:33.253Z,33.77
2017-04-15T08:56:34.404Z,31.60
2017-04-15T08:57:35.545Z,33.47
2017-04-15T08:58:37.048Z,31.70
2017-04-15T08:59:38.607Z,31.75
2017-04-15T09:00:40.096Z,29.98
2017-04-15T09:01:41.449Z,31.00
2017-04-15T09:02:42.703Z,29.18
2017-04-15T09:03:44.133Z,28.77
2017-04-15T09:04:45.111Z,30.43
2017-04-15T09:05:46.489Z,31.35
2017-04-15T09:06:47.888Z,29.33
2017-04-15T09:07:47.838Z,29.87
2017-04-15T09:08:48.981Z,28.20
2017-04-15T09:09:50.403Z,28.03
2017-04-15T09:10:51.760Z,28.63
2017-04-15T09:11:53.081Z,26.52
2017-04-15T09:12:54.274Z,27.28
2017-04-15T09:13:55.638Z,26.30
2017-04-15T09:14:56.741Z,27.25
2017-04-15T09:15:57.998Z,26.35
2017-04-15T09:16:59.247Z,26.78
2017-04-15T09:18:00.681Z,25.08
2017-04-15T09:19:01.756Z,25.78
2017-04-15T09:20:02.896Z,25.77
2017-04-15T09:21:04.276Z,25.08
2017-04-15T09:22:05.561Z,24.92
2017-04-15T09:23:06.736Z,26.57
2017-04-15T09:24:07.919Z,26.73
2017-04-15T09:25:09.070Z,25.12
2017-04-15T09:26:10.343Z,24.32
2017-04-15T09:27:11.480Z,24.70
2017-04-15T09:28:12.944Z,25.72
2017-04-15T09:29:14.051Z,26.95
2017-04-15T09:30:15.200Z,24.75
2017-04-15T09:31:16.355Z,25.33
2017-04-15T09:32:17.701Z,24.42
2017-04-15T09:33:18.827Z,26.05
2017-04-15T09:34:22.450Z,25.38
2017-04-15T09:35:23.916Z,24.42
2017-04-15T09:36:25.155Z,25.30
2017-04-15T09:37:26.759Z,24.22
2017-04-15T09:38:28.031Z,21.97
2017-04-15T09:39:29.708Z,22.08
2017-04-15T09:40:30.873Z,22.42
2017-04-15T09:41:32.110Z,23.77
2017-04-15T09:42:33.974Z,24.62
2017-04-15T09:43:35.439Z,22.57
2017-04-15T09:44:37.037Z,23.12
2017-04-15T09:45:38.589Z,22.15
2017-04-15T09:46:40.209Z,23.02
2017-04-15T09:47:41.660Z,22.22
2017-04-15T09:48:43.140Z,21.12
2017-04-15T09:49:44.116Z,22.32
2017-04-15T09:50:45.232Z,22.43
2017-04-15T09:51:46.706Z,23.62
2017-04-15T09:52:47.925Z,21.55
2017-04-15T09:53:49.306Z,22.93
2017-04-15T09:54:50.467Z,21.97
2017-04-15T09:55:52.023Z,21.85
2017-04-15T09:56:53.385Z,19.17
2017-04-15T09:57:54.621Z,20.95
2017-04-15T09:58:55.752Z,21.73
2017-04-15T09:59:56.898Z,20.80
2017-04-15T10:00:58.089Z,20.75
2017-04-15T10:01:59.455Z,21.38
2017-04-15T10:03:01.791Z,20.07
2017-04-15T10:04:03.257Z,19.60
2017-04-15T10:05:05.254Z,19.57
2017-04-15T10:06:06.622Z,20.58
2017-04-15T10:07:08.073Z,19.38
2017-04-15T10:08:09.215Z,20.03
2017-04-15T10:09:10.340Z,20.63
2017-04-15T10:10:11.815Z,17.90
2017-04-15T10:11:13.207Z,18.98
2017-04-15T10:12:14.536Z,18.33
2017-04-15T10:13:15.615Z,18.20
2017-04-15T10:14:16.593Z,18.28
2017-04-15T10:15:17.796Z,19.78
2017-04-15T10:16:18.987Z,17.42
2017-04-15T10:17:20.258Z,17.28
2017-04-15T10:18:21.719Z,18.35
2017-04-15T10:19:22.992Z,17.65
2017-04-15T10:20:24.735Z,18.42
2017-04-15T10:21:26.366Z,16.97
2017-04-15T10:22:27.538Z,17.62
2017-04-15T10:23:29.062Z,18.57
2017-04-15T10:24:30.432Z,18.67
2017-04-15T10:25:31.582Z,17.15
2017-04-15T10:26:32.559Z,17.67
2017-04-15T10:27:33.829Z,17.55
2017-04-15T10:28:35.218Z,17.32
2017-04-15T10:29:36.601Z,19.05
2017-04-15T10:30:37.881Z,17.42
2017-04-15T10:31:38.965Z,17.25
2017-04-15T10:32:40.242Z,17.12
2017-04-15T10:33:41.843Z,16.48
2017-04-15T10:34:43.094Z,17.18
2017-04-15T10:35:44.406Z,17.40
2017-04-15T10:36:45.532Z,18.35
2017-04-15T10:37:47.359Z,17.57
2017-04-15T10:38:48.502Z,16.55
2017-04-15T10:39:50.063Z,16.42
2017-04-15T10:40:51.555Z,16.98
2017-04-15T10:41:52.787Z,17.27
2017-04-15T10:42:53.973Z,15.58
2017-04-15T10:43:55.142Z,16.85
2017-04-15T10:44:56.127Z,14.90
2017-04-15T10:45:57.058Z,16.13
2017-04-15T10:46:58.605Z,14.50
2017-04-15T10:48:00.060Z,16.80
2017-04-15T10:49:01.055Z,15.83
2017-04-15T10:50:02.070Z,15.10
2017-04-15T10:51:03.325Z,14.28
2017-04-15T10:52:04.563Z,13.40
2017-04-15T10:53:06.109Z,13.80
2017-04-15T10:54:07.256Z,13.28
2017-04-15T10:55:08.399Z,13.07
2017-04-15T10:56:10.034Z,13.33
2017-04-15T10:57:11.451Z,13.07
2017-04-15T10:58:13.072Z,13.77
2017-04-15T10:59:14.226Z,13.50
2017-04-15T11:00:15.467Z,13.73
2017-04-15T11:01:16.421Z,12.52
2017-04-15T11:02:17.641Z,12.73
2017-04-15T11:03:18.907Z,14.70
2017-04-15T11:04:20.226Z,13.28
2017-04-15T11:05:21.614Z,13.70
2017-04-15T11:06:22.840Z,13.33
2017-04-15T11:07:24.035Z,11.95
2017-04-15T11:08:25.254Z,12.77
2017-04-15T11:09:26.539Z,13.25
2017-04-15T11:10:27.788Z,13.23
2017-04-15T11:11:29.071Z,13.07
2017-04-15T11:12:30.188Z,12.12
2017-04-15T11:13:31.499Z,12.43
2017-04-15T11:14:32.775Z,13.30
2017-04-15T11:15:34.134Z,11.35
2017-04-15T11:16:35.511Z,12.55
2017-04-15T11:17:36.761Z,12.23
2017-04-15T11:18:38.040Z,11.75
2017-04-15T11:19:39.550Z,11.13
2017-04-15T11:20:41.215Z,11.43
2017-04-15T11:21:42.457Z,11.13
2017-04-15T11:22:43.664Z,11.40
2017-04-15T11:23:45.372Z,11.07
2017-04-15T11:24:46.598Z,12.25
2017-04-15T11:25:47.823Z,12.07
2017-04-15T11:26:49.243Z,10.95
2017-04-15T11:27:50.612Z,11.43
2017-04-15T11:28:51.920Z,11.55
2017-04-15T11:29:53.220Z,11.35
2017-04-15T11:30:54.488Z,11.77
2017-04-15T11:31:55.600Z,10.92
2017-04-15T11:32:56.727Z,11.42
2017-04-15T11:33:57.677Z,10.18
2017-04-15T11:34:58.806Z,11.00
2017-04-15T11:36:00.024Z,10.83
2017-04-15T11:37:01.370Z,11.58
2017-04-15T11:38:02.604Z,11.15
2017-04-15T11:39:04.239Z,11.93
2017-04-15T11:40:05.445Z,11.12
2017-04-15T11:41:07.091Z,10.82
2017-04-15T11:42:08.269Z,11.37
2017-04-15T11:43:09.386Z,11.57
2017-04-15T11:44:10.781Z,11.08
2017-04-15T11:45:11.899Z,11.72
2017-04-15T11:46:13.243Z,11.80
2017-04-15T11:47:14.887Z,12.73
2017-04-15T11:48:16.831Z,11.97
2017-04-15T11:49:18.007Z,12.57
2017-04-15T11:50:19.165Z,11.87
2017-04-15T11:51:20.365Z,11.52
2017-04-15T11:52:21.857Z,13.10
2017-04-15T11:53:23.508Z,13.88
2017-04-15T11:54:24.786Z,11.90
2017-04-15T11:55:26.030Z,12.33
2017-04-15T11:56:27.120Z,12.32
2017-04-15T11:57:28.389Z,12.85
2017-04-15T11:58:29.418Z,13.02
2017-04-15T11:59:30.507Z,11.92
2017-04-15T12:00:31.631Z,13.02
2017-04-15T12:01:33.420Z,12.45
2017-04-15T12:02:35.056Z,12.45
2017-04-15T12:03:36.494Z,11.80
2017-04-15T12:04:37.723Z,12.27
2017-04-15T12:05:39.021Z,12.20
2017-04-15T12:06:40.032Z,11.85
2017-04-15T12:07:41.132Z,12.67
2017-04-15T12:08:42.719Z,12.60
2017-04-15T12:09:43.925Z,12.95
2017-04-15T12:10:45.210Z,11.30
2017-04-15T12:11:46.272Z,13.30
2017-04-15T12:12:47.456Z,12.27
2017-04-15T12:13:47.682Z,11.55
2017-04-15T12:14:48.961Z,12.75
2017-04-15T12:15:50.248Z,12.07
2017-04-15T12:16:52.111Z,12.72
2017-04-15T12:17:53.455Z,11.23
2017-04-15T12:18:55.065Z,11.43
2017-04-15T12:19:56.454Z,11.53
2017-04-15T12:20:57.626Z,11.53
2017-04-15T12:21:59.055Z,12.30
2017-04-15T12:23:00.187Z,12.28
2017-04-15T12:24:03.688Z,11.75
2017-04-15T12:25:05.087Z,12.68
2017-04-15T12:26:06.655Z,12.37
2017-04-15T12:27:08.218Z,12.55
2017-04-15T12:28:09.374Z,13.32
2017-04-15T12:29:10.623Z,12.83
2017-04-15T12:30:12.232Z,12.73
2017-04-15T12:31:13.474Z,12.30
2017-04-15T12:32:14.832Z,13.88
2017-04-15T12:33:15.826Z,13.87
2017-04-15T12:34:16.996Z,11.32
2017-04-15T12:35:18.149Z,12.40
2017-04-15T12:36:19.573Z,11.13
2017-04-15T12:37:21.959Z,12.27
2017-04-15T12:38:23.125Z,12.55
2017-04-15T12:39:24.479Z,12.42
2017-04-15T12:40:25.805Z,11.93
2017-04-15T12:41:27.157Z,12.45
2017-04-15T12:42:32.135Z,12.15
2017-04-15T12:43:34.212Z,11.70
2017-04-15T12:44:35.973Z,12.70
2017-04-15T12:45:38.169Z,11.77
2017-04-15T12:46:40.079Z,11.05
2017-04-15T12:47:42.638Z,10.15
2017-04-15T12:48:44.777Z,8.68
2017-04-15T12:49:48.805Z,9.18
2017-04-15T12:50:51.462Z,8.80
2017-04-15T12:51:54.582Z,9.42
2017-04-15T12:52:56.081Z,9.87
2017-04-15T12:53:58.555Z,9.15
2017-04-15T12:55:04.802Z,7.80
2017-04-15T12:56:07.058Z,7.78
2017-04-15T12:57:07.556Z,7.33
2017-04-15T12:58:09.081Z,8.00
2017-04-15T12:59:11.098Z,7.65
2017-04-15T13:00:12.218Z,7.93
2017-04-15T13:01:18.082Z,7.28
2017-04-15T13:02:20.693Z,8.72
2017-04-15T13:03:22.654Z,7.53
2017-04-15T13:04:24.088Z,7.27
2017-04-15T13:05:25.439Z,8.00
2017-04-15T13:06:27.154Z,7.93
2017-04-15T13:07:28.998Z,8.30
2017-04-15T13:08:31.190Z,7.67
2017-04-15T13:09:32.975Z,8.10
2017-04-15T13:10:34.120Z,8.32
2017-04-15T13:11:35.940Z,8.52
2017-04-15T13:12:37.213Z,8.43
2017-04-15T13:13:38.639Z,8.60